Longville, Minnesota
Current Conditions -  °F | °C
As of 8:56 PM on Thursday 27 Nov 2014 (Local Time) from KXVG Reporting Station
Overcast Overcast  
Wind Chill: -3°   Ceiling: 10000
Heat Index:   Visibility: 10mi
Dew Point: -2°   Wind: 6mph
Humidity: 67%   Direction: 170°S
Pressure: 30.23"   Gusts: NA
Location:  46.99°N, 94.21°W
Report Text: KXVG 280256Z AUTO 17005KT 10SM OVC100 M14/M19 A3023 RMK AO2
Loading
Personal Weather Stations






























Interactive Weather Map New forecast layout! Learn more

10-Day Weather Forecast

Advertisements
Track Severe Weather on mobile